sensor_id;sensor_type;location;lat;lon;timestamp;pressure;altitude;pressure_sealevel;temperature;humidity
65997;BME280;52765;52.258;21.052;2023-05-19T00:01:35;101801.75;;;11.97;94.07
65997;BME280;52765;52.258;21.052;2023-05-19T00:04:02;101804.84;;;11.93;94.46
65997;BME280;52765;52.258;21.052;2023-05-19T00:06:31;101800.28;;;11.93;94.88
65997;BME280;52765;52.258;21.052;2023-05-19T00:09:02;101799.91;;;11.98;95.53
65997;BME280;52765;52.258;21.052;2023-05-19T00:11:28;101802.59;;;11.98;95.52
65997;BME280;52765;52.258;21.052;2023-05-19T00:13:56;101795.84;;;11.92;95.30
65997;BME280;52765;52.258;21.052;2023-05-19T00:16:23;101800.03;;;11.85;95.34
65997;BME280;52765;52.258;21.052;2023-05-19T00:18:49;101802.00;;;11.83;96.15
65997;BME280;52765;52.258;21.052;2023-05-19T00:21:15;101797.47;;;11.83;96.58
65997;BME280;52765;52.258;21.052;2023-05-19T00:23:41;101800.16;;;11.83;96.90
65997;BME280;52765;52.258;21.052;2023-05-19T00:26:07;101792.06;;;11.83;97.08
65997;BME280;52765;52.258;21.052;2023-05-19T00:28:32;101794.63;;;11.85;97.46
65997;BME280;52765;52.258;21.052;2023-05-19T00:30:58;101797.47;;;11.83;97.47
65997;BME280;52765;52.258;21.052;2023-05-19T00:33:23;101794.88;;;11.82;97.66
65997;BME280;52765;52.258;21.052;2023-05-19T00:35:49;101795.47;;;11.85;98.03
65997;BME280;52765;52.258;21.052;2023-05-19T00:38:14;101797.94;;;11.89;98.16
65997;BME280;52765;52.258;21.052;2023-05-19T00:40:40;101806.44;;;11.84;97.89
65997;BME280;52765;52.258;21.052;2023-05-19T00:43:05;101807.34;;;11.73;98.76
65997;BME280;52765;52.258;21.052;2023-05-19T00:45:33;101799.41;;;11.60;98.93
65997;BME280;52765;52.258;21.052;2023-05-19T00:47:58;101797.47;;;11.51;99.73
65997;BME280;52765;52.258;21.052;2023-05-19T00:50:24;101789.88;;;11.45;100.00
65997;BME280;52765;52.258;21.052;2023-05-19T00:52:51;101787.19;;;11.45;100.00
65997;BME280;52765;52.258;21.052;2023-05-19T00:55:18;101790.25;;;11.40;100.00
65997;BME280;52765;52.258;21.052;2023-05-19T00:57:45;101778.03;;;11.36;100.00
65997;BME280;52765;52.258;21.052;2023-05-19T01:00:12;101780.47;;;11.39;100.00
65997;BME280;52765;52.258;21.052;2023-05-19T01:02:37;101787.81;;;11.37;100.00
65997;BME280;52765;52.258;21.052;2023-05-19T01:05:05;101783.41;;;11.36;100.00
65997;BME280;52765;52.258;21.052;2023-05-19T01:07:31;101767.72;;;11.30;100.00
65997;BME280;52765;52.258;21.052;2023-05-19T01:09:57;101778.88;;;11.37;100.00
65997;BME280;52765;52.258;21.052;2023-05-19T01:12:22;101780.84;;;11.35;100.00
65997;BME280;52765;52.258;21.052;2023-05-19T01:14:48;101777.78;;;11.39;100.00
65997;BME280;52765;52.258;21.052;2023-05-19T01:17:36;101779.72;;;11.37;100.00
65997;BME280;52765;52.258;21.052;2023-05-19T01:22:55;101779.59;;;11.39;100.00
65997;BME280;52765;52.258;21.052;2023-05-19T01:30:47;101776.41;;;11.34;100.00
65997;BME280;52765;52.258;21.052;2023-05-19T01:33:16;101776.41;;;11.34;100.00
65997;BME280;52765;52.258;21.052;2023-05-19T01:35:42;101769.03;;;11.36;100.00
65997;BME280;52765;52.258;21.052;2023-05-19T01:38:11;101775.44;;;11.35;100.00
65997;BME280;52765;52.258;21.052;2023-05-19T01:40:39;101773.00;;;11.32;100.00
65997;BME280;52765;52.258;21.052;2023-05-19T01:43:08;101759.53;;;11.20;100.00
65997;BME280;52765;52.258;21.052;2023-05-19T01:45:34;101760.78;;;11.16;100.00
65997;BME280;52765;52.258;21.052;2023-05-19T01:48:01;101766.31;;;11.15;100.00
65997;BME280;52765;52.258;21.052;2023-05-19T01:50:28;101762.59;;;11.16;100.00
65997;BME280;52765;52.258;21.052;2023-05-19T01:52:54;101753.78;;;11.14;100.00
65997;BME280;52765;52.258;21.052;2023-05-19T01:55:20;101760.53;;;11.19;100.00
65997;BME280;52765;52.258;21.052;2023-05-19T02:11:06;101762.34;;;11.19;100.00
65997;BME280;52765;52.258;21.052;2023-05-19T02:13:36;101755.41;;;11.16;100.00
65997;BME280;52765;52.258;21.052;2023-05-19T02:16:04;101749.28;;;11.14;100.00
65997;BME280;52765;52.258;21.052;2023-05-19T02:18:33;101755.16;;;11.08;100.00
65997;BME280;52765;52.258;21.052;2023-05-19T02:21:00;101745.59;;;11.04;100.00
65997;BME280;52765;52.258;21.052;2023-05-19T02:23:25;101756.38;;;11.04;100.00
65997;BME280;52765;52.258;21.052;2023-05-19T02:25:51;101749.16;;;11.04;100.00
65997;BME280;52765;52.258;21.052;2023-05-19T02:28:17;101750.25;;;11.02;100.00
65997;BME280;52765;52.258;21.052;2023-05-19T02:30:42;101749.16;;;11.04;100.00
65997;BME280;52765;52.258;21.052;2023-05-19T02:33:08;101752.97;;;11.02;100.00
65997;BME280;52765;52.258;21.052;2023-05-19T02:35:35;101751.38;;;10.99;100.00
65997;BME280;52765;52.258;21.052;2023-05-19T02:38:01;101749.78;;;10.97;100.00
65997;BME280;52765;52.258;21.052;2023-05-19T02:40:27;101751.38;;;10.99;100.00
65997;BME280;52765;52.258;21.052;2023-05-19T02:42:52;101747.56;;;11.02;100.00
65997;BME280;52765;52.258;21.052;2023-05-19T02:45:18;101750.16;;;11.03;100.00
65997;BME280;52765;52.258;21.052;2023-05-19T02:47:43;101753.81;;;11.02;100.00
65997;BME280;52765;52.258;21.052;2023-05-19T02:50:08;101750.75;;;10.96;100.00
65997;BME280;52765;52.258;21.052;2023-05-19T02:52:34;101748.81;;;10.98;100.00
65997;BME280;52765;52.258;21.052;2023-05-19T02:54:59;101750.63;;;10.97;100.00
65997;BME280;52765;52.258;21.052;2023-05-19T02:57:25;101751.28;;;10.89;100.00
65997;BME280;52765;52.258;21.052;2023-05-19T02:59:51;101757.16;;;10.95;100.00
65997;BME280;52765;52.258;21.052;2023-05-19T03:02:16;101749.06;;;10.95;100.00
65997;BME280;52765;52.258;21.052;2023-05-19T03:04:42;101756.16;;;10.96;100.00
65997;BME280;52765;52.258;21.052;2023-05-19T03:07:08;101753.44;;;10.96;100.00
65997;BME280;52765;52.258;21.052;2023-05-19T03:09:37;101760.44;;;10.98;100.00
65997;BME280;52765;52.258;21.052;2023-05-19T03:12:03;101753.44;;;10.96;100.00
65997;BME280;52765;52.258;21.052;2023-05-19T03:14:29;101761.53;;;10.96;100.00
65997;BME280;52765;52.258;21.052;2023-05-19T03:16:54;101757.03;;;10.96;100.00
65997;BME280;52765;52.258;21.052;2023-05-19T03:19:20;101754.44;;;10.95;100.00
65997;BME280;52765;52.258;21.052;2023-05-19T03:21:46;101755.66;;;10.90;100.00
65997;BME280;52765;52.258;21.052;2023-05-19T03:24:12;101758.59;;;10.87;100.00
65997;BME280;52765;52.258;21.052;2023-05-19T03:26:37;101760.47;;;10.87;100.00
65997;BME280;52765;52.258;21.052;2023-05-19T03:29:03;101755.19;;;10.85;100.00
65997;BME280;52765;52.258;21.052;2023-05-19T03:31:28;101756.44;;;10.92;100.00
65997;BME280;52765;52.258;21.052;2023-05-19T03:33:55;101768.06;;;10.93;100.00
65997;BME280;52765;52.258;21.052;2023-05-19T03:36:22;101759.38;;;10.89;100.00
65997;BME280;52765;52.258;21.052;2023-05-19T03:38:48;101765.72;;;10.88;100.00
65997;BME280;52765;52.258;21.052;2023-05-19T03:41:13;101767.47;;;10.89;100.00
65997;BME280;52765;52.258;21.052;2023-05-19T03:43:39;101763.75;;;10.90;100.00
65997;BME280;52765;52.258;21.052;2023-05-19T03:46:04;101766.94;;;10.96;100.00
65997;BME280;52765;52.258;21.052;2023-05-19T03:48:30;101759.25;;;10.91;100.00
65997;BME280;52765;52.258;21.052;2023-05-19T03:50:55;101768.53;;;10.87;100.00
65997;BME280;52765;52.258;21.052;2023-05-19T03:53:22;101770.41;;;10.86;100.00
65997;BME280;52765;52.258;21.052;2023-05-19T03:55:47;101764.16;;;10.86;100.00
65997;BME280;52765;52.258;21.052;2023-05-19T03:58:14;101768.53;;;10.87;100.00
65997;BME280;52765;52.258;21.052;2023-05-19T04:00:40;101767.56;;;10.88;100.00
65997;BME280;52765;52.258;21.052;2023-05-19T04:03:05;101772.38;;;10.84;100.00
65997;BME280;52765;52.258;21.052;2023-05-19T04:05:32;101759.97;;;10.82;100.00
65997;BME280;52765;52.258;21.052;2023-05-19T04:07:57;101759.13;;;10.81;100.00
65997;BME280;52765;52.258;21.052;2023-05-19T04:10:23;101762.06;;;10.78;100.00
65997;BME280;52765;52.258;21.052;2023-05-19T04:12:48;101759.63;;;10.75;100.00
65997;BME280;52765;52.258;21.052;2023-05-19T04:15:14;101769.19;;;10.79;100.00
65997;BME280;52765;52.258;21.052;2023-05-19T04:17:40;101756.91;;;10.75;100.00
65997;BME280;52765;52.258;21.052;2023-05-19T04:20:06;101771.38;;;10.74;100.00
65997;BME280;52765;52.258;21.052;2023-05-19T04:22:31;101759.13;;;10.70;100.00
65997;BME280;52765;52.258;21.052;2023-05-19T04:24:57;101755.94;;;10.65;100.00
65997;BME280;52765;52.258;21.052;2023-05-19T04:27:23;101763.06;;;10.66;100.00
65997;BME280;52765;52.258;21.052;2023-05-19T04:29:50;101762.78;;;10.69;100.00
65997;BME280;52765;52.258;21.052;2023-05-19T04:32:15;101758.53;;;10.78;100.00
65997;BME280;52765;52.258;21.052;2023-05-19T04:34:43;101760.94;;;10.81;100.00
65997;BME280;52765;52.258;21.052;2023-05-19T04:37:12;101764.16;;;10.86;100.00
65997;BME280;52765;52.258;21.052;2023-05-19T04:39:42;101762.06;;;10.89;100.00
65997;BME280;52765;52.258;21.052;2023-05-19T04:42:10;101762.78;;;10.91;100.00
65997;BME280;52765;52.258;21.052;2023-05-19T04:44:39;101773.09;;;10.98;100.00
65997;BME280;52765;52.258;21.052;2023-05-19T04:47:07;101764.25;;;10.96;100.00
65997;BME280;52765;52.258;21.052;2023-05-19T04:49:36;101765.72;;;11.00;100.00
65997;BME280;52765;52.258;21.052;2023-05-19T04:52:05;101760.31;;;11.00;100.00
65997;BME280;52765;52.258;21.052;2023-05-19T04:54:30;101769.25;;;11.00;100.00
65997;BME280;52765;52.258;21.052;2023-05-19T04:56:56;101765.34;;;11.04;100.00
65997;BME280;52765;52.258;21.052;2023-05-19T04:59:21;101770.63;;;11.06;100.00
65997;BME280;52765;52.258;21.052;2023-05-19T05:01:47;101764.59;;;11.14;100.00
65997;BME280;52765;52.258;21.052;2023-05-19T05:04:12;101765.72;;;11.11;100.00
65997;BME280;52765;52.258;21.052;2023-05-19T05:06:38;101771.81;;;11.13;100.00
65997;BME280;52765;52.258;21.052;2023-05-19T05:09:04;101771.34;;;11.08;100.00
65997;BME280;52765;52.258;21.052;2023-05-19T05:11:30;101756.50;;;11.02;100.00
65997;BME280;52765;52.258;21.052;2023-05-19T05:13:56;101769.88;;;11.04;100.00
65997;BME280;52765;52.258;21.052;2023-05-19T05:16:25;101772.09;;;10.99;100.00
65997;BME280;52765;52.258;21.052;2023-05-19T05:18:50;101763.38;;;10.95;100.00
65997;BME280;52765;52.258;21.052;2023-05-19T05:21:17;101767.44;;;11.01;100.00
65997;BME280;52765;52.258;21.052;2023-05-19T05:23:46;101765.34;;;11.04;100.00
65997;BME280;52765;52.258;21.052;2023-05-19T05:26:16;101768.28;;;11.13;100.00
65997;BME280;52765;52.258;21.052;2023-05-19T05:28:43;101768.88;;;11.16;100.00
65997;BME280;52765;52.258;21.052;2023-05-19T05:31:09;101769.84;;;11.15;100.00
65997;BME280;52765;52.258;21.052;2023-05-19T05:33:34;101768.63;;;11.19;100.00
65997;BME280;52765;52.258;21.052;2023-05-19T05:36:00;101766.78;;;11.20;100.00
65997;BME280;52765;52.258;21.052;2023-05-19T05:38:25;101764.94;;;11.20;100.00
65997;BME280;52765;52.258;21.052;2023-05-19T05:40:51;101765.28;;;11.27;100.00
65997;BME280;52765;52.258;21.052;2023-05-19T05:43:20;101770.19;;;11.33;100.00
65997;BME280;52765;52.258;21.052;2023-05-19T05:45:48;101768.06;;;11.37;100.00
65997;BME280;52765;52.258;21.052;2023-05-19T05:48:14;101774.44;;;11.36;100.00
65997;BME280;52765;52.258;21.052;2023-05-19T05:50:42;101765.50;;;11.35;100.00
65997;BME280;52765;52.258;21.052;2023-05-19T05:53:13;101761.84;;;11.36;100.00
65997;BME280;52765;52.258;21.052;2023-05-19T05:55:42;101769.03;;;11.47;100.00
65997;BME280;52765;52.258;21.052;2023-05-19T05:58:07;101763.72;;;11.57;100.00
65997;BME280;52765;52.258;21.052;2023-05-19T06:00:36;101772.41;;;11.60;100.00
65997;BME280;52765;52.258;21.052;2023-05-19T06:03:02;101759.66;;;11.62;100.00
65997;BME280;52765;52.258;21.052;2023-05-19T06:05:28;101764.78;;;11.65;100.00
65997;BME280;52765;52.258;21.052;2023-05-19T06:07:54;101772.50;;;11.70;100.00
65997;BME280;52765;52.258;21.052;2023-05-19T06:10:20;101773.34;;;11.71;100.00
65997;BME280;52765;52.258;21.052;2023-05-19T06:12:45;101771.38;;;11.73;100.00
65997;BME280;52765;52.258;21.052;2023-05-19T06:15:10;101774.09;;;11.73;100.00
65997;BME280;52765;52.258;21.052;2023-05-19T06:17:36;101777.84;;;11.81;100.00
65997;BME280;52765;52.258;21.052;2023-05-19T06:20:03;101773.88;;;11.85;100.00
65997;BME280;52765;52.258;21.052;2023-05-19T06:22:34;101769.75;;;11.81;100.00
65997;BME280;52765;52.258;21.052;2023-05-19T06:24:59;101776.31;;;11.89;100.00
65997;BME280;52765;52.258;21.052;2023-05-19T06:27:26;101777.69;;;11.94;100.00
65997;BME280;52765;52.258;21.052;2023-05-19T06:29:52;101767.38;;;11.88;100.00
65997;BME280;52765;52.258;21.052;2023-05-19T06:32:18;101775.88;;;11.83;100.00
65997;BME280;52765;52.258;21.052;2023-05-19T06:34:44;101780.41;;;11.83;100.00
65997;BME280;52765;52.258;21.052;2023-05-19T06:37:10;101772.97;;;11.75;100.00
65997;BME280;52765;52.258;21.052;2023-05-19T06:39:36;101784.28;;;11.69;100.00
65997;BME280;52765;52.258;21.052;2023-05-19T06:42:02;101780.72;;;11.69;100.00
65997;BME280;52765;52.258;21.052;2023-05-19T06:44:28;101774.81;;;11.75;100.00
65997;BME280;52765;52.258;21.052;2023-05-19T06:46:53;101773.03;;;11.85;100.00
65997;BME280;52765;52.258;21.052;2023-05-19T06:49:19;101775.47;;;11.88;100.00
65997;BME280;52765;52.258;21.052;2023-05-19T06:51:44;101777.34;;;11.88;100.00
65997;BME280;52765;52.258;21.052;2023-05-19T06:54:13;101775.25;;;11.91;100.00
65997;BME280;52765;52.258;21.052;2023-05-19T06:56:40;101775.00;;;11.94;100.00
65997;BME280;52765;52.258;21.052;2023-05-19T06:59:05;101773.00;;;11.96;100.00
65997;BME280;52765;52.258;21.052;2023-05-19T07:01:31;101771.16;;;11.97;100.00
65997;BME280;52765;52.258;21.052;2023-05-19T07:03:56;101762.47;;;11.93;100.00
65997;BME280;52765;52.258;21.052;2023-05-19T07:06:22;101768.84;;;11.92;100.00
65997;BME280;52765;52.258;21.052;2023-05-19T07:08:48;101775.13;;;11.93;100.00
65997;BME280;52765;52.258;21.052;2023-05-19T07:11:14;101764.06;;;11.96;100.00
65997;BME280;52765;52.258;21.052;2023-05-19T07:13:39;101762.94;;;11.98;100.00
65997;BME280;52765;52.258;21.052;2023-05-19T07:16:05;101769.94;;;12.01;100.00
65997;BME280;52765;52.258;21.052;2023-05-19T07:18:30;101756.88;;;12.06;100.00
65997;BME280;52765;52.258;21.052;2023-05-19T07:20:56;101765.06;;;12.16;100.00
65997;BME280;52765;52.258;21.052;2023-05-19T07:23:23;101763.38;;;12.25;100.00
65997;BME280;52765;52.258;21.052;2023-05-19T07:25:48;101762.38;;;12.26;100.00
65997;BME280;52765;52.258;21.052;2023-05-19T07:28:14;101758.31;;;12.31;100.00
65997;BME280;52765;52.258;21.052;2023-05-19T07:30:39;101762.25;;;12.27;100.00
65997;BME280;52765;52.258;21.052;2023-05-19T07:33:05;101754.75;;;12.31;100.00
65997;BME280;52765;52.258;21.052;2023-05-19T07:35:31;101759.06;;;12.43;100.00
65997;BME280;52765;52.258;21.052;2023-05-19T07:37:57;101754.97;;;12.49;100.00
65997;BME280;52765;52.258;21.052;2023-05-19T07:40:23;101749.59;;;12.58;100.00
65997;BME280;52765;52.258;21.052;2023-05-19T07:42:49;101762.81;;;12.52;100.00
65997;BME280;52765;52.258;21.052;2023-05-19T07:45:17;101762.28;;;12.58;100.00
65997;BME280;52765;52.258;21.052;2023-05-19T07:47:45;101759.72;;;12.56;100.00
65997;BME280;52765;52.258;21.052;2023-05-19T07:50:10;101764.72;;;12.61;100.00
65997;BME280;52765;52.258;21.052;2023-05-19T07:52:35;101760.03;;;12.63;100.00
65997;BME280;52765;52.258;21.052;2023-05-19T07:55:01;101762.44;;;12.66;100.00
65997;BME280;52765;52.258;21.052;2023-05-19T07:57:26;101758.28;;;12.62;100.00
65997;BME280;52765;52.258;21.052;2023-05-19T07:59:52;101757.59;;;12.60;100.00
65997;BME280;52765;52.258;21.052;2023-05-19T08:02:17;101756.88;;;12.58;100.00
65997;BME280;52765;52.258;21.052;2023-05-19T08:04:42;101761.75;;;12.64;100.00
65997;BME280;52765;52.258;21.052;2023-05-19T08:07:08;101750.94;;;12.64;100.00
65997;BME280;52765;52.258;21.052;2023-05-19T08:09:33;101753.50;;;12.66;100.00
65997;BME280;52765;52.258;21.052;2023-05-19T08:11:59;101745.06;;;12.59;100.00
65997;BME280;52765;52.258;21.052;2023-05-19T08:14:25;101762.69;;;12.53;100.00
65997;BME280;52765;52.258;21.052;2023-05-19T08:16:53;101760.81;;;12.54;100.00
65997;BME280;52765;52.258;21.052;2023-05-19T08:19:20;101760.19;;;12.40;100.00
65997;BME280;52765;52.258;21.052;2023-05-19T08:21:46;101764.22;;;12.46;100.00
65997;BME280;52765;52.258;21.052;2023-05-19T08:24:12;101759.13;;;12.53;100.00
65997;BME280;52765;52.258;21.052;2023-05-19T08:26:38;101750.31;;;12.61;100.00
65997;BME280;52765;52.258;21.052;2023-05-19T08:29:03;101760.16;;;12.62;100.00
65997;BME280;52765;52.258;21.052;2023-05-19T08:31:31;101758.16;;;12.64;100.00
65997;BME280;52765;52.258;21.052;2023-05-19T08:33:57;101758.13;;;12.54;100.00
65997;BME280;52765;52.258;21.052;2023-05-19T08:36:25;101768.09;;;12.53;100.00
65997;BME280;52765;52.258;21.052;2023-05-19T08:38:53;101759.91;;;12.44;100.00
65997;BME280;52765;52.258;21.052;2023-05-19T08:41:21;101764.94;;;12.48;100.00
65997;BME280;52765;52.258;21.052;2023-05-19T08:43:47;101762.34;;;12.47;100.00
65997;BME280;52765;52.258;21.052;2023-05-19T08:46:15;101764.66;;;12.51;100.00
65997;BME280;52765;52.258;21.052;2023-05-19T08:48:41;101765.69;;;12.60;100.00
65997;BME280;52765;52.258;21.052;2023-05-19T08:51:24;101768.44;;;12.70;100.00
65997;BME280;52765;52.258;21.052;2023-05-19T08:53:52;101768.31;;;12.71;100.00
65997;BME280;52765;52.258;21.052;2023-05-19T08:56:22;101762.06;;;12.71;100.00
65997;BME280;52765;52.258;21.052;2023-05-19T08:58:50;101762.38;;;12.77;100.00
65997;BME280;52765;52.258;21.052;2023-05-19T09:01:16;101761.66;;;12.85;100.00
65997;BME280;52765;52.258;21.052;2023-05-19T09:03:46;101754.28;;;12.87;100.00
65997;BME280;52765;52.258;21.052;2023-05-19T09:06:14;101759.13;;;12.93;100.00
65997;BME280;52765;52.258;21.052;2023-05-19T09:08:40;101758.56;;;13.00;100.00
65997;BME280;52765;52.258;21.052;2023-05-19T09:11:07;101755.19;;;13.07;100.00
65997;BME280;52765;52.258;21.052;2023-05-19T09:13:33;101756.47;;;13.13;100.00
65997;BME280;52765;52.258;21.052;2023-05-19T09:15:59;101752.78;;;13.14;100.00
65997;BME280;52765;52.258;21.052;2023-05-19T09:18:25;101757.63;;;13.20;100.00
65997;BME280;52765;52.258;21.052;2023-05-19T09:20:55;101759.47;;;13.20;100.00
65997;BME280;52765;52.258;21.052;2023-05-19T09:23:26;101756.50;;;13.23;100.00
65997;BME280;52765;52.258;21.052;2023-05-19T09:25:53;101764.19;;;13.27;100.00
65997;BME280;52765;52.258;21.052;2023-05-19T09:28:37;101759.97;;;13.35;100.00
65997;BME280;52765;52.258;21.052;2023-05-19T09:31:06;101758.38;;;13.32;99.77
65997;BME280;52765;52.258;21.052;2023-05-19T09:33:34;101761.22;;;13.40;99.28
65997;BME280;52765;52.258;21.052;2023-05-19T09:36:00;101747.84;;;13.48;99.50
65997;BME280;52765;52.258;21.052;2023-05-19T09:38:26;101752.44;;;13.58;98.78
65997;BME280;52765;52.258;21.052;2023-05-19T09:40:56;101753.69;;;13.63;96.78
65997;BME280;52765;52.258;21.052;2023-05-19T09:43:22;101753.69;;;13.63;97.07
65997;BME280;52765;52.258;21.052;2023-05-19T09:45:53;101759.97;;;13.74;97.30
65997;BME280;52765;52.258;21.052;2023-05-19T09:48:19;101752.25;;;13.88;97.06
65997;BME280;52765;52.258;21.052;2023-05-19T09:50:44;101761.94;;;14.01;95.69
65997;BME280;52765;52.258;21.052;2023-05-19T09:53:12;101755.38;;;14.03;96.06
65997;BME280;52765;52.258;21.052;2023-05-19T09:55:38;101755.94;;;14.07;95.17
65997;BME280;52765;52.258;21.052;2023-05-19T09:58:05;101752.78;;;14.12;95.60
65997;BME280;52765;52.258;21.052;2023-05-19T10:00:31;101751.97;;;14.01;95.02
65997;BME280;52765;52.258;21.052;2023-05-19T10:03:00;101745.41;;;13.94;94.82
65997;BME280;52765;52.258;21.052;2023-05-19T10:05:29;101753.97;;;13.99;95.39
65997;BME280;52765;52.258;21.052;2023-05-19T10:07:55;101751.41;;;13.98;95.22
65997;BME280;52765;52.258;21.052;2023-05-19T10:10:21;101750.81;;;14.04;95.37
65997;BME280;52765;52.258;21.052;2023-05-19T10:12:47;101745.69;;;14.11;95.53
65997;BME280;52765;52.258;21.052;2023-05-19T10:15:15;101740.25;;;14.11;95.03
65997;BME280;52765;52.258;21.052;2023-05-19T10:17:43;101757.38;;;14.11;94.64
65997;BME280;52765;52.258;21.052;2023-05-19T10:20:15;101753.94;;;14.19;95.11
65997;BME280;52765;52.258;21.052;2023-05-19T10:22:42;101750.47;;;14.27;95.03
65997;BME280;52765;52.258;21.052;2023-05-19T10:25:08;101742.47;;;14.35;94.16
65997;BME280;52765;52.258;21.052;2023-05-19T10:27:38;101741.06;;;14.31;93.37
65997;BME280;52765;52.258;21.052;2023-05-19T10:30:08;101740.78;;;14.24;93.33
65997;BME280;52765;52.258;21.052;2023-05-19T10:32:37;101732.53;;;14.25;93.51
65997;BME280;52765;52.258;21.052;2023-05-19T10:38:33;101735.28;;;14.43;93.16
65997;BME280;52765;52.258;21.052;2023-05-19T10:46:00;101723.69;;;14.61;90.50
65997;BME280;52765;52.258;21.052;2023-05-19T10:48:26;101734.81;;;14.68;90.83
65997;BME280;52765;52.258;21.052;2023-05-19T10:50:57;101738.63;;;14.75;90.82
65997;BME280;52765;52.258;21.052;2023-05-19T10:53:32;101733.78;;;14.96;89.22
65997;BME280;52765;52.258;21.052;2023-05-19T10:56:00;101736.41;;;15.34;87.83
65997;BME280;52765;52.258;21.052;2023-05-19T10:58:38;101729.56;;;15.66;86.66
65997;BME280;52765;52.258;21.052;2023-05-19T11:01:11;101731.47;;;15.73;83.46
65997;BME280;52765;52.258;21.052;2023-05-19T11:03:51;101738.88;;;15.81;83.79
65997;BME280;52765;52.258;21.052;2023-05-19T11:08:59;101743.91;;;15.58;83.83
65997;BME280;52765;52.258;21.052;2023-05-19T11:11:41;101736.09;;;15.37;84.41
65997;BME280;52765;52.258;21.052;2023-05-19T11:14:10;101736.41;;;15.34;85.63
65997;BME280;52765;52.258;21.052;2023-05-19T11:16:38;101734.22;;;15.38;85.57
65997;BME280;52765;52.258;21.052;2023-05-19T11:19:05;101729.88;;;15.45;85.03
65997;BME280;52765;52.258;21.052;2023-05-19T11:21:49;101733.69;;;15.34;85.50
65997;BME280;52765;52.258;21.052;2023-05-19T11:24:46;101728.88;;;15.28;85.04
65997;BME280;52765;52.258;21.052;2023-05-19T11:29:46;101737.66;;;14.94;86.65
65997;BME280;52765;52.258;21.052;2023-05-19T11:32:15;101733.28;;;14.83;87.55
65997;BME280;52765;52.258;21.052;2023-05-19T11:34:45;101739.56;;;14.84;87.94
65997;BME280;52765;52.258;21.052;2023-05-19T11:37:12;101732.34;;;14.74;88.33
65997;BME280;52765;52.258;21.052;2023-05-19T11:39:38;101738.06;;;14.71;88.38
65997;BME280;52765;52.258;21.052;2023-05-19T11:42:04;101728.06;;;14.72;87.95
65997;BME280;52765;52.258;21.052;2023-05-19T11:44:30;101729.47;;;14.76;88.01
65997;BME280;52765;52.258;21.052;2023-05-19T11:46:57;101727.28;;;14.89;88.59
65997;BME280;52765;52.258;21.052;2023-05-19T11:49:27;101737.03;;;15.00;88.42
65997;BME280;52765;52.258;21.052;2023-05-19T11:51:53;101744.78;;;14.95;87.94
65997;BME280;52765;52.258;21.052;2023-05-19T11:54:19;101735.81;;;14.94;88.47
65997;BME280;52765;52.258;21.052;2023-05-19T11:56:44;101734.56;;;15.07;88.89
65997;BME280;52765;52.258;21.052;2023-05-19T11:59:10;101736.22;;;15.17;87.65
65997;BME280;52765;52.258;21.052;2023-05-19T12:01:35;101732.81;;;15.33;87.84
65997;BME280;52765;52.258;21.052;2023-05-19T12:04:02;101737.03;;;15.46;86.27
65997;BME280;52765;52.258;21.052;2023-05-19T12:06:32;101738.94;;;15.53;85.52
65997;BME280;52765;52.258;21.052;2023-05-19T12:08:58;101745.00;;;15.65;85.72
65997;BME280;52765;52.258;21.052;2023-05-19T12:11:27;101731.75;;;15.62;84.03
65997;BME280;52765;52.258;21.052;2023-05-19T12:13:57;101733.13;;;15.66;84.56
65997;BME280;52765;52.258;21.052;2023-05-19T12:16:31;101733.97;;;15.67;84.09
65997;BME280;52765;52.258;21.052;2023-05-19T12:18:57;101740.19;;;15.59;84.38
65997;BME280;52765;52.258;21.052;2023-05-19T12:21:22;101742.03;;;15.59;83.99
65997;BME280;52765;52.258;21.052;2023-05-19T12:23:48;101728.69;;;15.65;84.04
65997;BME280;52765;52.258;21.052;2023-05-19T12:26:13;101740.28;;;15.67;83.96
65997;BME280;52765;52.258;21.052;2023-05-19T12:28:39;101739.75;;;15.64;83.89
65997;BME280;52765;52.258;21.052;2023-05-19T12:31:05;101726.31;;;15.44;84.39
65997;BME280;52765;52.258;21.052;2023-05-19T12:33:32;101733.13;;;15.30;85.57
65997;BME280;52765;52.258;21.052;2023-05-19T12:36:05;101734.38;;;15.36;86.10
65997;BME280;52765;52.258;21.052;2023-05-19T12:38:33;101727.84;;;15.47;84.87
65997;BME280;52765;52.258;21.052;2023-05-19T12:41:01;101734.06;;;15.57;84.88
65997;BME280;52765;52.258;21.052;2023-05-19T12:43:27;101732.97;;;15.68;85.32
65997;BME280;52765;52.258;21.052;2023-05-19T12:45:52;101732.66;;;15.71;84.35
65997;BME280;52765;52.258;21.052;2023-05-19T12:48:20;101723.31;;;15.73;84.57
65997;BME280;52765;52.258;21.052;2023-05-19T12:50:47;101734.34;;;15.72;84.52
65997;BME280;52765;52.258;21.052;2023-05-19T12:53:15;101729.19;;;15.79;84.74
65997;BME280;52765;52.258;21.052;2023-05-19T12:55:42;101727.34;;;15.79;84.58
65997;BME280;52765;52.258;21.052;2023-05-19T12:58:09;101724.31;;;15.82;84.48
65997;BME280;52765;52.258;21.052;2023-05-19T13:00:43;101728.94;;;15.90;83.80
65997;BME280;52765;52.258;21.052;2023-05-19T13:03:19;101730.34;;;15.94;83.90
65997;BME280;52765;52.258;21.052;2023-05-19T13:05:47;101722.50;;;15.91;83.22
65997;BME280;52765;52.258;21.052;2023-05-19T13:08:18;101720.19;;;15.78;83.25